This is the latest recevied weather packets stored in our database for station/object LU8AQL-WX. If no packets are shown the sender has not sent any weather packets the latest 10 day(s).
| Time | Temp. | Humidity | Pressure | Rain* | Wind** | Luminosity | Snow |
|---|---|---|---|---|---|---|---|
| 1777528159 | 12.78° C | 69% | 1015 hPa | 0 mm | - | - | - |
| 1777527557 | 12.78° C | 70% | 1015 hPa | 0 mm | - | - | - |
| 1777526957 | 12.22° C | 70% | 1015 hPa | 0 mm | - | - | - |
| 1777526355 | 12.22° C | 69% | 1015 hPa | 0 mm | - | - | - |
| 1777525755 | 12.78° C | 69% | 1015 hPa | 0 mm | - | - | - |
| 1777525154 | 12.78° C | 71% | 1015 hPa | 0 mm | - | - | - |
| 1777524553 | 12.78° C | 70% | 1015 hPa | 0 mm | - | - | - |
| 1777523952 | 12.78° C | 68% | 1015 hPa | 0 mm | - | - | - |
| 1777523350 | 13.33° C | 63% | 1015 hPa | 0 mm | - | - | - |
| 1777522750 | 13.33° C | 63% | 1015 hPa | 0 mm | - | - | - |
| 1777522149 | 13.89° C | 63% | 1015 hPa | 0 mm | - | - | - |
| 1777521548 | 13.33° C | 65% | 1015 hPa | 0 mm | - | - | - |
| 1777520947 | 13.33° C | 64% | 1015 hPa | 0 mm | - | - | - |
| 1777520346 | 13.89° C | 64% | 1015 hPa | 0 mm | - | - | - |
| 1777519745 | 13.89° C | 64% | 1015 hPa | 0 mm | - | - | - |
| 1777519140 | 13.89° C | 64% | 1015 hPa | 0 mm | - | - | - |
| 1777518539 | 13.89° C | 64% | 1015 hPa | 0 mm | - | - | - |
| 1777517938 | 12.78° C | 66% | 1015 hPa | 0 mm | - | - | - |
| 1777517337 | 13.33° C | 65% | 1015 hPa | 0 mm | - | - | - |
| 1777516736 | 13.33° C | 64% | 1015 hPa | 0 mm | - | - | - |
| 1777516136 | 13.33° C | 65% | 1015 hPa | 0 mm | - | - | - |
| 1777515534 | 13.33° C | 65% | 1015 hPa | 0 mm | - | - | - |
| 1777514933 | 14.44° C | 61% | 1015 hPa | 0 mm | - | - | - |
| 1777514332 | 13.89° C | 63% | 1015 hPa | 0 mm | - | - | - |
| 1777513731 | 13.89° C | 62% | 1015 hPa | 0 mm | - | - | - |
* Rain latest hour (hover to see other rain measurements)
** Current wind speed in m/s (hover to see current wind gust speed)